Time;durP1;ratioP1;P1;durP2;ratioP2;P2;SDS_P1;SDS_P2;PMS_P1;PMS_P2;Temp;Humidity;BMP_temperature;BMP_pressure;BME280_temperature;BME280_humidity;BME280_pressure;Samples;Min_cycle;Max_cycle;Signal;HPM_P1;HPM_P2
2019/08/21 00:01:29;;;;;;;10.5;9;;;;;;;13.99;100;971.3431;;;;
2019/08/21 00:03:54;;;;;;;10;8.5;;;;;;;14.03;100;971.4517;;;;
2019/08/21 00:06:19;;;;;;;10.9;9.1;;;;;;;14.09;100;971.5438;;;;
2019/08/21 00:08:46;;;;;;;10;8.9;;;;;;;14.08;100;971.5601;;;;
2019/08/21 00:11:15;;;;;;;9.4;8.4;;;;;;;14.12;100;971.67;;;;
2019/08/21 00:13:37;;;;;;;10.4;9.3;;;;;;;13.99;100;971.6489;;;;
2019/08/21 00:16:02;;;;;;;10.1;9.1;;;;;;;14.08;100;971.6847;;;;
2019/08/21 00:18:27;;;;;;;10.7;9.6;;;;;;;14.02;100;971.6389;;;;
2019/08/21 00:20:52;;;;;;;12.3;10.6;;;;;;;13.92;100;971.6472;;;;
2019/08/21 00:23:18;;;;;;;11.1;10;;;;;;;14.08;100;971.6445;;;;
2019/08/21 00:25:43;;;;;;;10.1;9;;;;;;;14.1;100;971.6264;;;;
2019/08/21 00:28:46;;;;;;;11.5;9.6;;;;;;;14.02;100;971.5553;;;;
2019/08/21 00:30:34;;;;;;;9.8;8.8;;;;;;;13.9;100;971.5679;;;;
2019/08/21 00:32:59;;;;;;;12;9.9;;;;;;;13.87;100;971.5933;;;;
2019/08/21 00:35:25;;;;;;;12.8;10;;;;;;;13.82;100;971.5898;;;;
2019/08/21 00:37:50;;;;;;;11.1;10;;;;;;;13.92;100;971.6185;;;;
2019/08/21 00:40:17;;;;;;;11.7;10.5;;;;;;;13.85;100;971.6116;;;;
2019/08/21 00:42:43;;;;;;;11.1;10;;;;;;;13.97;100;971.6241;;;;
2019/08/21 00:45:10;;;;;;;10.9;9.7;;;;;;;14;100;971.6936;;;;
2019/08/21 00:47:35;;;;;;;10.9;9.7;;;;;;;13.99;100;971.7439;;;;
2019/08/21 00:50:00;;;;;;;11.9;10.6;;;;;;;13.98;100;971.6986;;;;
2019/08/21 00:52:25;;;;;;;11.5;10.4;;;;;;;13.95;100;971.7037;;;;
2019/08/21 00:54:51;;;;;;;13.3;10.9;;;;;;;14.02;100;971.7448;;;;
2019/08/21 00:57:18;;;;;;;13.6;11.4;;;;;;;13.97;100;971.7572;;;;
2019/08/21 00:59:44;;;;;;;12.2;11;;;;;;;14.1;100;971.7444;;;;
2019/08/21 01:02:09;;;;;;;13.4;11.5;;;;;;;14.1;100;971.7567;;;;
2019/08/21 01:04:37;;;;;;;14.4;12.9;;;;;;;14;100;971.8416;;;;
2019/08/21 01:07:06;;;;;;;15;13.4;;;;;;;13.93;100;971.8187;;;;
2019/08/21 01:09:31;;;;;;;16.8;14.5;;;;;;;13.91;100;971.7905;;;;
2019/08/21 01:11:59;;;;;;;15.1;13.5;;;;;;;13.9;100;971.7809;;;;
2019/08/21 01:14:24;;;;;;;15.4;13.8;;;;;;;14.03;100;971.7469;;;;
2019/08/21 01:16:51;;;;;;;15.2;13.6;;;;;;;14;100;971.7628;;;;
2019/08/21 01:19:16;;;;;;;16.4;14.7;;;;;;;13.96;100;971.7719;;;;
2019/08/21 01:21:42;;;;;;;14.8;13.3;;;;;;;13.89;100;971.7891;;;;
2019/08/21 01:24:07;;;;;;;16.5;13.8;;;;;;;13.95;100;971.7595;;;;
2019/08/21 01:26:34;;;;;;;18.2;14.6;;;;;;;14.05;100;971.72;;;;
2019/08/21 01:28:59;;;;;;;15.6;14;;;;;;;13.96;100;971.753;;;;
2019/08/21 01:31:25;;;;;;;16.9;15.1;;;;;;;13.81;100;971.7466;;;;
2019/08/21 01:33:50;;;;;;;16.8;14.5;;;;;;;13.97;100;971.6559;;;;
2019/08/21 01:36:15;;;;;;;16.4;14.7;;;;;;;13.94;100;971.6216;;;;
2019/08/21 01:38:46;;;;;;;15.9;14.2;;;;;;;14.01;100;971.5248;;;;
2019/08/21 01:41:12;;;;;;;15.3;13.7;;;;;;;14.04;100;971.56;;;;
2019/08/21 01:43:37;;;;;;;16.4;14.7;;;;;;;13.98;100;971.6192;;;;
2019/08/21 01:46:06;;;;;;;15.7;14.1;;;;;;;13.91;100;971.6462;;;;
2019/08/21 01:48:31;;;;;;;15.4;13.8;;;;;;;13.94;100;971.6942;;;;
2019/08/21 01:50:56;;;;;;;16.5;14.7;;;;;;;13.96;100;971.7342;;;;
2019/08/21 01:53:21;;;;;;;15.4;13.8;;;;;;;13.96;100;971.6826;;;;
2019/08/21 01:55:46;;;;;;;15.9;14.2;;;;;;;13.92;100;971.6661;;;;
2019/08/21 01:58:14;;;;;;;16.1;14.4;;;;;;;14.02;100;971.6848;;;;
2019/08/21 02:00:39;;;;;;;14.9;13.3;;;;;;;13.87;100;971.6614;;;;
2019/08/21 02:03:04;;;;;;;15.4;13.8;;;;;;;14.04;100;971.7149;;;;
2019/08/21 02:05:29;;;;;;;14.9;13.4;;;;;;;13.97;100;971.7125;;;;
2019/08/21 02:07:55;;;;;;;16.1;14.3;;;;;;;13.78;100;971.7369;;;;
2019/08/21 02:10:22;;;;;;;15.2;13.6;;;;;;;13.79;100;971.8173;;;;
2019/08/21 02:12:47;;;;;;;16.1;13.8;;;;;;;13.75;100;971.8384;;;;
2019/08/21 02:15:12;;;;;;;15.9;14.2;;;;;;;13.82;100;971.9058;;;;
2019/08/21 02:17:37;;;;;;;17.6;14.5;;;;;;;13.8;100;971.8506;;;;
2019/08/21 02:20:02;;;;;;;15;13.4;;;;;;;13.83;100;971.8981;;;;
2019/08/21 02:22:33;;;;;;;16.4;14.5;;;;;;;13.85;100;971.9279;;;;
2019/08/21 02:24:52;;;;;;;16.5;14.8;;;;;;;13.9;100;971.9719;;;;
2019/08/21 02:27:17;;;;;;;15.5;13.8;;;;;;;13.91;100;972.0089;;;;
2019/08/21 02:29:43;;;;;;;14.5;13;;;;;;;13.99;100;971.975;;;;
2019/08/21 02:32:09;;;;;;;15.3;13.7;;;;;;;14.01;100;971.9355;;;;
2019/08/21 02:34:34;;;;;;;15.6;13.9;;;;;;;14.03;100;971.9763;;;;
2019/08/21 02:37:00;;;;;;;15.6;13.4;;;;;;;13.96;100;971.9727;;;;
2019/08/21 02:39:25;;;;;;;15.5;13.8;;;;;;;13.93;100;971.9515;;;;
2019/08/21 02:41:51;;;;;;;14.6;13.1;;;;;;;13.99;100;971.9244;;;;
2019/08/21 02:44:16;;;;;;;15.6;13.7;;;;;;;14.01;100;971.9741;;;;
2019/08/21 02:46:41;;;;;;;15.1;13.5;;;;;;;14.04;100;971.9675;;;;
2019/08/21 02:49:06;;;;;;;16.3;14.6;;;;;;;14.03;100;971.8845;;;;
2019/08/21 02:51:31;;;;;;;16.1;14.5;;;;;;;13.97;100;971.8301;;;;
2019/08/21 02:54:00;;;;;;;16.8;15;;;;;;;13.92;100;971.7955;;;;
2019/08/21 02:56:26;;;;;;;16.7;15;;;;;;;13.99;100;971.8594;;;;
2019/08/21 02:58:56;;;;;;;15.9;14.3;;;;;;;14.13;100;971.8099;;;;
2019/08/21 03:01:22;;;;;;;16.7;14.9;;;;;;;14.08;100;971.7938;;;;
2019/08/21 03:03:47;;;;;;;17.9;16;;;;;;;14.16;100;971.863;;;;
2019/08/21 03:06:12;;;;;;;17.9;16.1;;;;;;;14.16;100;971.8386;;;;
2019/08/21 03:08:37;;;;;;;17.3;15.5;;;;;;;14.11;100;971.8806;;;;
2019/08/21 03:11:04;;;;;;;18.7;16.8;;;;;;;14.18;100;971.9002;;;;
2019/08/21 03:13:36;;;;;;;18.8;17;;;;;;;14.23;100;971.8983;;;;
2019/08/21 03:16:01;;;;;;;19.5;17.5;;;;;;;14.14;100;971.8502;;;;
2019/08/21 03:18:26;;;;;;;19.3;17.4;;;;;;;14.05;100;971.8553;;;;
2019/08/21 03:20:51;;;;;;;19.8;17.8;;;;;;;14.07;100;971.8976;;;;
2019/08/21 03:23:16;;;;;;;18.5;16.6;;;;;;;14.09;100;971.9303;;;;
2019/08/21 03:25:43;;;;;;;19.6;17.6;;;;;;;14.06;100;971.9247;;;;
2019/08/21 03:28:08;;;;;;;18.9;17.1;;;;;;;14.02;100;971.9316;;;;
2019/08/21 03:30:47;;;;;;;17.7;16;;;;;;;14.13;100;971.9992;;;;
2019/08/21 03:32:58;;;;;;;19.2;17.2;;;;;;;14.09;100;971.9899;;;;
2019/08/21 03:35:28;;;;;;;20.3;18.2;;;;;;;14.11;100;971.9905;;;;
2019/08/21 03:37:57;;;;;;;20.8;18.7;;;;;;;14.03;100;971.9723;;;;
2019/08/21 03:40:24;;;;;;;20.3;18.3;;;;;;;14.09;100;971.9886;;;;
2019/08/21 03:42:49;;;;;;;19.7;17.7;;;;;;;14.01;100;971.9896;;;;
2019/08/21 03:45:14;;;;;;;18.6;16.7;;;;;;;14.09;100;971.9644;;;;
2019/08/21 03:47:39;;;;;;;20.2;18.1;;;;;;;14.08;100;971.9421;;;;
2019/08/21 03:50:05;;;;;;;21;19;;;;;;;14.17;100;972.0149;;;;
2019/08/21 03:52:30;;;;;;;19.2;17.3;;;;;;;14.14;100;971.9706;;;;
2019/08/21 03:54:55;;;;;;;18.7;16.9;;;;;;;14.21;100;972.0006;;;;
2019/08/21 03:57:21;;;;;;;21.5;19.3;;;;;;;14.12;100;972.0405;;;;
2019/08/21 03:59:46;;;;;;;21.4;19.2;;;;;;;13.92;100;972.0406;;;;
2019/08/21 04:02:31;;;;;;;23.4;20.9;;;;;;;13.97;100;972.0761;;;;
2019/08/21 04:04:56;;;;;;;23.4;21;;;;;;;13.97;100;972.0769;;;;
2019/08/21 04:07:21;;;;;;;21.1;19.1;;;;;;;13.99;100;972.0415;;;;
2019/08/21 04:09:46;;;;;;;21.8;19.6;;;;;;;14.02;100;972.0414;;;;
2019/08/21 04:12:11;;;;;;;21.5;19.4;;;;;;;13.98;100;972.0898;;;;
2019/08/21 04:14:36;;;;;;;22;19.9;;;;;;;13.92;100;972.0891;;;;
2019/08/21 04:17:01;;;;;;;23.2;20.7;;;;;;;13.91;100;972.0232;;;;
2019/08/21 04:19:26;;;;;;;21.2;19.1;;;;;;;13.95;100;972.093;;;;
2019/08/21 04:21:51;;;;;;;22.4;20.1;;;;;;;14.03;100;972.0944;;;;
2019/08/21 04:24:17;;;;;;;22.7;20.3;;;;;;;13.96;100;972.1088;;;;
2019/08/21 04:26:42;;;;;;;22.9;20.6;;;;;;;13.99;100;972.1136;;;;
2019/08/21 04:29:07;;;;;;;24.3;21.7;;;;;;;13.99;100;972.0908;;;;
2019/08/21 04:31:32;;;;;;;23.8;21.4;;;;;;;13.89;100;972.0037;;;;
2019/08/21 04:33:57;;;;;;;24;21.5;;;;;;;13.79;100;972.0369;;;;
2019/08/21 04:36:22;;;;;;;22.2;20;;;;;;;13.69;100;972.0425;;;;
2019/08/21 04:38:47;;;;;;;22.2;19.8;;;;;;;13.75;100;972.0564;;;;
2019/08/21 04:41:12;;;;;;;24.2;21.6;;;;;;;13.81;100;972.0539;;;;
2019/08/21 04:43:37;;;;;;;22;19.8;;;;;;;13.83;100;972.0627;;;;
2019/08/21 04:46:02;;;;;;;20.5;18.3;;;;;;;13.87;100;972.1326;;;;
2019/08/21 04:48:27;;;;;;;21.8;19.5;;;;;;;13.82;100;972.1685;;;;
2019/08/21 04:50:52;;;;;;;19.9;18;;;;;;;13.8;100;972.18;;;;
2019/08/21 04:53:18;;;;;;;20.8;18.7;;;;;;;13.86;100;972.2037;;;;
2019/08/21 04:55:43;;;;;;;19.3;17.3;;;;;;;13.88;100;972.2056;;;;
2019/08/21 04:58:08;;;;;;;20;18;;;;;;;13.89;100;972.2734;;;;
2019/08/21 05:00:33;;;;;;;21.5;19.2;;;;;;;13.9;100;972.267;;;;
2019/08/21 05:02:58;;;;;;;20.6;18.6;;;;;;;13.92;100;972.3315;;;;
2019/08/21 05:05:24;;;;;;;20.2;18.1;;;;;;;14.01;100;972.3716;;;;
2019/08/21 05:07:50;;;;;;;19.8;17.8;;;;;;;14.1;100;972.4306;;;;
2019/08/21 05:10:15;;;;;;;20.7;18.6;;;;;;;14.11;100;972.4791;;;;
2019/08/21 05:12:40;;;;;;;23.5;21.1;;;;;;;14.25;100;972.468;;;;
2019/08/21 05:15:08;;;;;;;23.6;20.9;;;;;;;14.23;100;972.4608;;;;
2019/08/21 05:17:33;;;;;;;24.8;20.8;;;;;;;14.22;100;972.505;;;;
2019/08/21 05:19:58;;;;;;;24.5;21.9;;;;;;;14.28;100;972.4877;;;;
2019/08/21 05:22:23;;;;;;;25.4;22.7;;;;;;;14.23;100;972.5257;;;;
2019/08/21 05:24:49;;;;;;;24.8;21.8;;;;;;;14.23;100;972.51;;;;
2019/08/21 05:27:17;;;;;;;23.2;20.7;;;;;;;14.22;100;972.5288;;;;
2019/08/21 05:29:47;;;;;;;21.9;19.7;;;;;;;14.28;100;972.4902;;;;
2019/08/21 05:32:16;;;;;;;24.7;21.2;;;;;;;14.37;100;972.4827;;;;
2019/08/21 05:34:41;;;;;;;23.1;20.3;;;;;;;14.36;100;972.5432;;;;
2019/08/21 05:37:06;;;;;;;21.4;19.3;;;;;;;14.41;100;972.541;;;;
2019/08/21 05:39:31;;;;;;;22.5;19.8;;;;;;;14.43;100;972.5931;;;;
2019/08/21 05:42:01;;;;;;;22.2;19.8;;;;;;;14.45;100;972.5642;;;;
2019/08/21 05:44:32;;;;;;;19.8;17.8;;;;;;;14.51;100;972.5428;;;;
2019/08/21 05:47:00;;;;;;;19.9;17.8;;;;;;;14.49;100;972.4888;;;;
2019/08/21 05:49:25;;;;;;;19.6;17.6;;;;;;;14.39;100;972.4832;;;;
2019/08/21 05:51:50;;;;;;;20;17.4;;;;;;;14.25;100;972.4952;;;;
2019/08/21 05:54:15;;;;;;;19.6;17.5;;;;;;;14.27;100;972.4778;;;;
2019/08/21 05:56:40;;;;;;;19.9;17.8;;;;;;;14.35;100;972.4549;;;;
2019/08/21 05:59:10;;;;;;;19.1;17.1;;;;;;;14.33;100;972.4522;;;;
2019/08/21 06:01:41;;;;;;;19.9;17.8;;;;;;;14.35;100;972.4689;;;;
2019/08/21 06:04:08;;;;;;;18.3;16.5;;;;;;;14.5;100;972.5087;;;;
2019/08/21 06:06:34;;;;;;;18.1;16.3;;;;;;;14.62;100;972.6014;;;;
2019/08/21 06:08:59;;;;;;;20;18;;;;;;;14.57;100;972.524;;;;
2019/08/21 06:11:25;;;;;;;20.2;18.1;;;;;;;14.52;100;972.5956;;;;
2019/08/21 06:13:50;;;;;;;22.8;20;;;;;;;14.45;100;972.597;;;;
2019/08/21 06:16:15;;;;;;;22.7;20;;;;;;;14.37;100;972.563;;;;
2019/08/21 06:18:41;;;;;;;20.3;18.2;;;;;;;14.41;100;972.5793;;;;
2019/08/21 06:21:06;;;;;;;20.1;18.1;;;;;;;14.52;100;972.5653;;;;
2019/08/21 06:23:31;;;;;;;19.9;18;;;;;;;14.55;100;972.5078;;;;
2019/08/21 06:25:56;;;;;;;23.2;20.9;;;;;;;14.64;100;972.5471;;;;
2019/08/21 06:28:23;;;;;;;23;20.5;;;;;;;14.67;100;972.4747;;;;
2019/08/21 06:30:48;;;;;;;22.4;20;;;;;;;14.66;100;972.5058;;;;
2019/08/21 06:33:22;;;;;;;22.3;20.1;;;;;;;14.74;100;972.5567;;;;
2019/08/21 06:35:48;;;;;;;22.4;20.1;;;;;;;14.87;100;972.5411;;;;
2019/08/21 06:38:13;;;;;;;22.4;20.1;;;;;;;14.88;100;972.5633;;;;
2019/08/21 06:40:39;;;;;;;22.3;20;;;;;;;14.81;100;972.5701;;;;
2019/08/21 06:43:04;;;;;;;21.4;19.2;;;;;;;14.8;99.78516;972.5228;;;;
2019/08/21 06:45:29;;;;;;;21;18.8;;;;;;;14.8;99.30664;972.5327;;;;
2019/08/21 06:47:55;;;;;;;21.3;19.1;;;;;;;14.76;99.83301;972.5137;;;;
2019/08/21 06:50:22;;;;;;;21;17.9;;;;;;;14.68;99.17578;972.4855;;;;
2019/08/21 06:52:47;;;;;;;20;17.9;;;;;;;14.8;99.86523;972.5031;;;;
2019/08/21 06:55:16;;;;;;;21.1;18.9;;;;;;;14.79;100;972.4128;;;;
2019/08/21 06:57:42;;;;;;;19.6;17.6;;;;;;;14.79;99.45605;972.4512;;;;
2019/08/21 07:00:10;;;;;;;22;19.7;;;;;;;14.89;100;972.4896;;;;
2019/08/21 07:02:35;;;;;;;18.8;16.8;;;;;;;14.99;100;972.4897;;;;
2019/08/21 07:05:02;;;;;;;17.1;15.3;;;;;;;15.19;99.66602;972.4734;;;;
2019/08/21 07:07:27;;;;;;;18.6;16.2;;;;;;;15.23;99.53516;972.4473;;;;
2019/08/21 07:09:53;;;;;;;14.2;12.3;;;;;;;15.33;93.70215;972.4256;;;;
2019/08/21 07:12:21;;;;;;;12.2;10.9;;;;;;;15.28;94.85645;972.4244;;;;
2019/08/21 07:14:46;;;;;;;14.3;11.8;;;;;;;15.49;94.80762;972.4519;;;;
2019/08/21 07:17:11;;;;;;;13;11.1;;;;;;;15.52;93.9541;972.4492;;;;
2019/08/21 07:19:38;;;;;;;14.8;12.7;;;;;;;15.35;94.98828;972.4015;;;;
2019/08/21 07:22:06;;;;;;;13;11.7;;;;;;;15.47;96.74805;972.459;;;;
2019/08/21 07:24:31;;;;;;;13.6;12.1;;;;;;;15.5;95.68262;972.4687;;;;
2019/08/21 07:26:56;;;;;;;16.1;14.5;;;;;;;15.61;94.28809;972.465;;;;
2019/08/21 07:29:21;;;;;;;16.8;14.9;;;;;;;15.59;93.86328;972.4467;;;;
2019/08/21 07:31:51;;;;;;;13.7;12.3;;;;;;;15.48;92.52441;972.4345;;;;
2019/08/21 07:34:20;;;;;;;15.4;12.8;;;;;;;15.37;91.61523;972.4714;;;;
2019/08/21 07:36:46;;;;;;;13;11.3;;;;;;;15.26;91.91895;972.4841;;;;
2019/08/21 07:39:11;;;;;;;13.4;11.9;;;;;;;15.27;92.58594;972.43;;;;
2019/08/21 07:41:36;;;;;;;14.3;12;;;;;;;15.18;91.90137;972.4691;;;;
2019/08/21 07:44:01;;;;;;;13.6;12.2;;;;;;;15.22;93.90234;972.4789;;;;
2019/08/21 07:46:26;;;;;;;18.8;15;;;;;;;15.32;95.49414;972.4617;;;;
2019/08/21 07:48:52;;;;;;;19.2;16.2;;;;;;;15.3;98.1875;972.5292;;;;
2019/08/21 07:51:19;;;;;;;10.7;8.8;;;;;;;15.39;91.33008;972.4573;;;;
2019/08/21 07:53:48;;;;;;;11.6;7.9;;;;;;;15.55;89.97852;972.4334;;;;
2019/08/21 07:56:13;;;;;;;9.8;6.6;;;;;;;15.64;88.72754;972.459;;;;
2019/08/21 07:58:43;;;;;;;9.5;6.6;;;;;;;15.57;84.71973;972.4528;;;;
2019/08/21 08:01:08;;;;;;;10.9;8.3;;;;;;;15.48;89.76758;972.4691;;;;
2019/08/21 08:03:33;;;;;;;11.1;7.4;;;;;;;15.58;86.43359;972.4462;;;;
2019/08/21 08:05:58;;;;;;;9.7;6.9;;;;;;;15.58;85.65332;972.438;;;;
2019/08/21 08:08:23;;;;;;;10.5;6.9;;;;;;;15.68;88.09668;972.4439;;;;
2019/08/21 08:10:54;;;;;;;9.6;7;;;;;;;15.65;86.12109;972.406;;;;
2019/08/21 08:13:15;;;;;;;9.7;6.2;;;;;;;15.66;87.62695;972.4192;;;;
2019/08/21 08:15:44;;;;;;;8.7;6.2;;;;;;;15.83;85.93555;972.3901;;;;
2019/08/21 08:18:09;;;;;;;9.5;5.7;;;;;;;15.85;88.07227;972.401;;;;
2019/08/21 08:20:34;;;;;;;10.8;6.4;;;;;;;15.96;85.98438;972.3826;;;;
2019/08/21 08:22:59;;;;;;;8.8;5.2;;;;;;;16.14;85.41406;972.3967;;;;
2019/08/21 08:25:28;;;;;;;9.8;5.2;;;;;;;16.14;84.39941;972.4197;;;;
2019/08/21 08:27:55;;;;;;;6.7;4.8;;;;;;;16.17;84.9541;972.3758;;;;
2019/08/21 08:30:20;;;;;;;9.1;4.7;;;;;;;16.13;82.5332;972.4073;;;;
2019/08/21 08:32:45;;;;;;;7.4;4.5;;;;;;;16.15;83.87891;972.3625;;;;
2019/08/21 08:35:10;;;;;;;9.8;5.3;;;;;;;16.04;82.84082;972.348;;;;
2019/08/21 08:37:37;;;;;;;9.5;5.2;;;;;;;15.99;84.73145;972.324;;;;
2019/08/21 08:40:03;;;;;;;8.5;5.1;;;;;;;16.12;84.68555;972.323;;;;
2019/08/21 08:42:28;;;;;;;9.9;4.8;;;;;;;16.03;83.67969;972.3152;;;;
2019/08/21 08:44:53;;;;;;;10.1;4.7;;;;;;;16.07;84.52539;972.3617;;;;
2019/08/21 08:47:18;;;;;;;8.1;4.1;;;;;;;16.25;83.8252;972.3485;;;;
2019/08/21 08:49:46;;;;;;;8.7;4.2;;;;;;;16.23;82.27148;972.353;;;;
2019/08/21 08:52:14;;;;;;;7.9;4.2;;;;;;;16.17;81.44336;972.4012;;;;
2019/08/21 08:54:40;;;;;;;7;4.3;;;;;;;16.19;82.98633;972.3993;;;;
2019/08/21 08:57:06;;;;;;;8.9;4.8;;;;;;;16.26;83.81738;972.3749;;;;
2019/08/21 08:59:31;;;;;;;9.8;4.4;;;;;;;16.32;81.25;972.3348;;;;
2019/08/21 09:01:56;;;;;;;7.2;4;;;;;;;16.3;80.30273;972.3611;;;;
2019/08/21 09:04:21;;;;;;;8.4;4.1;;;;;;;16.17;79.64844;972.3387;;;;
2019/08/21 09:06:46;;;;;;;7.9;4.3;;;;;;;16.11;81.11914;972.3336;;;;
2019/08/21 09:09:11;;;;;;;8;4.7;;;;;;;16;82.6709;972.3314;;;;
2019/08/21 09:11:36;;;;;;;9.5;4.6;;;;;;;16.07;81.13379;972.3642;;;;
2019/08/21 09:14:01;;;;;;;7.6;4.3;;;;;;;16.17;81.86328;972.3667;;;;
2019/08/21 09:16:27;;;;;;;6.7;4.2;;;;;;;16.25;81.93652;972.2761;;;;
2019/08/21 09:18:52;;;;;;;7.2;4.1;;;;;;;16.32;80.0957;972.2847;;;;
2019/08/21 09:21:17;;;;;;;7.2;4.2;;;;;;;16.41;77.3125;972.2491;;;;
2019/08/21 09:23:42;;;;;;;7.9;3.9;;;;;;;16.51;80.29395;972.2353;;;;
2019/08/21 09:26:08;;;;;;;17.8;4.4;;;;;;;16.59;77.93945;972.2389;;;;
2019/08/21 09:28:32;;;;;;;7.8;3.6;;;;;;;16.56;74.61914;972.2352;;;;
2019/08/21 09:30:58;;;;;;;8.4;3.3;;;;;;;16.66;76.00293;972.202;;;;
2019/08/21 09:33:23;;;;;;;6.8;3.4;;;;;;;16.75;75.79785;972.2104;;;;
2019/08/21 09:35:48;;;;;;;9.6;3.2;;;;;;;16.87;73.24805;972.0887;;;;
2019/08/21 09:38:18;;;;;;;6.9;3.2;;;;;;;16.94;74.4873;972.1467;;;;
2019/08/21 09:40:44;;;;;;;7.9;3.4;;;;;;;16.96;73.52148;972.1727;;;;
2019/08/21 09:43:11;;;;;;;7.1;3.1;;;;;;;16.95;73.96191;972.1319;;;;
2019/08/21 09:45:36;;;;;;;10.6;3.1;;;;;;;17.07;73.9834;972.1484;;;;
2019/08/21 09:48:01;;;;;;;9.3;3.4;;;;;;;17.18;75.37988;972.1567;;;;
2019/08/21 09:50:28;;;;;;;7.5;3.4;;;;;;;17.21;73.58496;972.0845;;;;
2019/08/21 09:52:53;;;;;;;7.7;3.1;;;;;;;17.33;69.48047;972.1043;;;;
2019/08/21 09:55:19;;;;;;;9.2;3.2;;;;;;;17.47;72.56445;972.1075;;;;
2019/08/21 09:57:47;;;;;;;8.4;3.1;;;;;;;17.53;70.69336;972.0772;;;;
2019/08/21 10:00:12;;;;;;;6.2;2.9;;;;;;;17.58;69.99902;972.0339;;;;
2019/08/21 10:02:37;;;;;;;8.4;3;;;;;;;17.66;70.72559;972.03;;;;
2019/08/21 10:05:02;;;;;;;8.3;3;;;;;;;17.68;70.02637;972.0675;;;;
2019/08/21 10:07:27;;;;;;;6.3;2.6;;;;;;;17.76;70.57617;972.0392;;;;
2019/08/21 10:09:56;;;;;;;7.6;2.7;;;;;;;17.61;70.38965;972.0623;;;;
2019/08/21 10:12:21;;;;;;;8.2;2.8;;;;;;;17.36;70.83984;972.0272;;;;
2019/08/21 10:14:50;;;;;;;7.8;2.9;;;;;;;17.45;68.67969;971.9888;;;;
2019/08/21 10:17:16;;;;;;;5.6;2.6;;;;;;;17.42;71.81934;971.9991;;;;
2019/08/21 10:19:42;;;;;;;8.7;2.9;;;;;;;17.38;71.56836;971.9695;;;;
2019/08/21 10:22:07;;;;;;;7.6;3.1;;;;;;;17.51;68.68945;971.8625;;;;
2019/08/21 10:24:32;;;;;;;6.8;2.8;;;;;;;17.65;66.8877;971.8997;;;;
2019/08/21 10:26:57;;;;;;;6.4;2.7;;;;;;;17.79;71.96289;971.861;;;;
2019/08/21 10:29:22;;;;;;;8.1;2.9;;;;;;;17.8;68.44336;971.8563;;;;
2019/08/21 10:31:47;;;;;;;6.1;2.8;;;;;;;17.81;67.84668;971.8753;;;;
2019/08/21 10:34:13;;;;;;;5.4;2.7;;;;;;;17.81;68.7832;971.8844;;;;
2019/08/21 10:36:38;;;;;;;7.8;3;;;;;;;17.84;66.8916;971.8344;;;;
2019/08/21 10:39:03;;;;;;;6.6;2.8;;;;;;;17.98;66.76172;971.8582;;;;
2019/08/21 10:41:30;;;;;;;7.6;2.9;;;;;;;18.07;66.78613;971.8079;;;;
2019/08/21 10:43:55;;;;;;;6;2.8;;;;;;;18.03;67.09668;971.7933;;;;
2019/08/21 10:46:25;;;;;;;7.5;2.7;;;;;;;18.03;71.69922;971.771;;;;
2019/08/21 10:48:50;;;;;;;7.2;2.7;;;;;;;18.2;67.4375;971.7735;;;;
2019/08/21 10:51:16;;;;;;;6.5;2.9;;;;;;;18.39;65.61621;971.7849;;;;
2019/08/21 10:53:41;;;;;;;6.8;2.8;;;;;;;18.38;65.55664;971.7453;;;;
2019/08/21 10:56:06;;;;;;;5.8;2.9;;;;;;;18.37;66.46875;971.7709;;;;
2019/08/21 10:58:34;;;;;;;6.8;2.6;;;;;;;18.32;64.44727;971.7556;;;;
2019/08/21 11:00:59;;;;;;;6.3;2.7;;;;;;;18.33;64.33008;971.7374;;;;
2019/08/21 11:03:24;;;;;;;7.6;2.9;;;;;;;18.21;66.31738;971.6671;;;;
2019/08/21 11:05:55;;;;;;;6.4;2.7;;;;;;;18.28;64.22852;971.634;;;;
2019/08/21 11:08:22;;;;;;;7.8;2.6;;;;;;;18.38;65.04102;971.5869;;;;
2019/08/21 11:10:47;;;;;;;5.3;2.5;;;;;;;18.3;66.84473;971.558;;;;
2019/08/21 11:13:12;;;;;;;6.5;2.5;;;;;;;18.3;65.25195;971.606;;;;
2019/08/21 11:15:37;;;;;;;8.9;3.2;;;;;;;18.53;65.64941;971.6021;;;;
2019/08/21 11:18:05;;;;;;;7.1;2.7;;;;;;;18.54;66.10645;971.6202;;;;
2019/08/21 11:20:31;;;;;;;5.4;2.7;;;;;;;18.43;64.94336;971.6328;;;;
2019/08/21 11:22:56;;;;;;;6.8;2.5;;;;;;;18.27;65.27148;971.5776;;;;
2019/08/21 11:25:25;;;;;;;6.3;2.4;;;;;;;18.23;65.35938;971.5567;;;;
2019/08/21 11:27:50;;;;;;;6.3;2.4;;;;;;;18.12;64.08887;971.5722;;;;
2019/08/21 11:30:15;;;;;;;7.2;2.6;;;;;;;18.06;64.39746;971.5667;;;;
2019/08/21 11:32:40;;;;;;;6.6;2.7;;;;;;;18.01;64.81152;971.5681;;;;
2019/08/21 11:35:06;;;;;;;5.9;2.8;;;;;;;18.06;67.16113;971.532;;;;
2019/08/21 11:37:31;;;;;;;5.7;2.5;;;;;;;18.01;64.97461;971.5269;;;;
2019/08/21 11:39:57;;;;;;;7.4;2.5;;;;;;;17.9;66.10645;971.5347;;;;
2019/08/21 11:42:21;;;;;;;6;2.8;;;;;;;17.83;67.06543;971.5825;;;;
2019/08/21 11:44:49;;;;;;;7.3;2.5;;;;;;;17.89;63.18945;971.543;;;;
2019/08/21 11:47:20;;;;;;;6.3;2.2;;;;;;;18.02;64.0498;971.5193;;;;
2019/08/21 11:49:45;;;;;;;7.8;2.5;;;;;;;18.33;63.7793;971.5442;;;;
2019/08/21 11:52:13;;;;;;;5.6;2.5;;;;;;;18.56;63.00488;971.5039;;;;
2019/08/21 11:54:38;;;;;;;6.7;2.4;;;;;;;18.54;61.68945;971.4905;;;;
2019/08/21 11:57:03;;;;;;;7.3;2.4;;;;;;;18.41;61.00195;971.4832;;;;
2019/08/21 11:59:33;;;;;;;6.5;2.3;;;;;;;18.38;61.50293;971.4869;;;;
2019/08/21 12:01:58;;;;;;;5.6;2.3;;;;;;;18.26;61.83594;971.4934;;;;
2019/08/21 12:04:23;;;;;;;6.2;2.5;;;;;;;18.15;64.32715;971.4528;;;;
2019/08/21 12:06:49;;;;;;;6.6;2.6;;;;;;;18.44;61.55664;971.4387;;;;
2019/08/21 12:09:14;;;;;;;6.5;2.6;;;;;;;18.74;60.83691;971.3973;;;;
2019/08/21 12:11:39;;;;;;;42.3;10.1;;;;;;;19.02;60.53516;971.3938;;;;
2019/08/21 12:14:04;;;;;;;6.4;2.6;;;;;;;19.22;58.22656;971.3353;;;;
2019/08/21 12:16:29;;;;;;;6.2;2.4;;;;;;;19.36;60.23047;971.3872;;;;
2019/08/21 12:18:56;;;;;;;6.6;2.9;;;;;;;19.01;59.91211;971.3633;;;;
2019/08/21 12:21:32;;;;;;;7.8;2.7;;;;;;;18.92;60.19336;971.3702;;;;
2019/08/21 12:23:55;;;;;;;5.7;2.2;;;;;;;19.2;61.3584;971.3897;;;;
2019/08/21 12:26:20;;;;;;;15.2;5.9;;;;;;;19.21;58.89551;971.3214;;;;
2019/08/21 12:28:48;;;;;;;7.3;3;;;;;;;19.14;58.55762;971.3092;;;;
2019/08/21 12:31:13;;;;;;;5.6;2.3;;;;;;;19.11;55.57227;971.3876;;;;
2019/08/21 12:33:38;;;;;;;6;2.3;;;;;;;19.34;53.82715;971.3225;;;;
2019/08/21 12:36:04;;;;;;;6.6;2.7;;;;;;;18.97;56.37598;971.3475;;;;
2019/08/21 12:38:28;;;;;;;5.6;2.4;;;;;;;18.9;56.82422;971.3577;;;;
2019/08/21 12:40:53;;;;;;;6.9;3;;;;;;;18.77;56.91211;971.3546;;;;
2019/08/21 12:43:18;;;;;;;5.4;2.4;;;;;;;18.69;58.06348;971.3429;;;;
2019/08/21 12:45:43;;;;;;;6.2;2.4;;;;;;;18.56;56.78027;971.3322;;;;
2019/08/21 12:48:08;;;;;;;6.4;2.8;;;;;;;18.59;57.51074;971.2896;;;;
2019/08/21 12:50:34;;;;;;;6.2;3;;;;;;;18.58;58.3418;971.2805;;;;
2019/08/21 12:53:03;;;;;;;5.3;2.4;;;;;;;18.56;59.46484;971.2587;;;;
2019/08/21 12:55:30;;;;;;;6.8;2.9;;;;;;;18.88;58.37012;971.2222;;;;
2019/08/21 12:57:58;;;;;;;8.2;2.5;;;;;;;19.25;58.10254;971.1726;;;;
2019/08/21 13:00:23;;;;;;;5.8;2.4;;;;;;;19.47;57.14355;971.1376;;;;
2019/08/21 13:02:49;;;;;;;6.3;2.5;;;;;;;19.55;57.4375;971.1545;;;;
2019/08/21 13:05:14;;;;;;;6.5;2.7;;;;;;;19.28;56.35547;971.2058;;;;
2019/08/21 13:07:39;;;;;;;6.4;2.7;;;;;;;18.99;55.38086;971.23;;;;
2019/08/21 13:10:06;;;;;;;5.5;2.7;;;;;;;18.92;55.53613;971.186;;;;
2019/08/21 13:12:31;;;;;;;4.9;2.9;;;;;;;19.03;55.9834;971.1297;;;;
2019/08/21 13:14:56;;;;;;;5.7;2.7;;;;;;;19.31;55.96094;971.0927;;;;
2019/08/21 13:17:21;;;;;;;5.8;2.7;;;;;;;19.56;56.05176;971.1122;;;;
2019/08/21 13:19:46;;;;;;;6.9;2.6;;;;;;;19.95;56.46484;971.0322;;;;
2019/08/21 13:22:11;;;;;;;4.9;2.3;;;;;;;20.06;54.28027;971.024;;;;
2019/08/21 13:24:37;;;;;;;5.4;2.5;;;;;;;20.3;54.82715;970.9933;;;;
2019/08/21 13:27:02;;;;;;;6.9;2.5;;;;;;;20.46;55.03516;971.0108;;;;
2019/08/21 13:29:27;;;;;;;6.9;2.5;;;;;;;20.52;53.5;971.0115;;;;
2019/08/21 13:31:52;;;;;;;5.1;2.7;;;;;;;20.49;51.97754;971.008;;;;
2019/08/21 13:34:20;;;;;;;7.3;2.7;;;;;;;20.36;53.24609;970.9975;;;;
2019/08/21 13:36:45;;;;;;;5;2.5;;;;;;;20.6;53.28711;970.9891;;;;
2019/08/21 13:39:11;;;;;;;6.6;2.4;;;;;;;20.83;53.3252;970.9689;;;;
2019/08/21 13:41:37;;;;;;;4.5;2.6;;;;;;;21.02;54.0791;970.8994;;;;
2019/08/21 13:44:02;;;;;;;7.2;2.9;;;;;;;20.77;52.33984;970.8755;;;;
2019/08/21 13:46:29;;;;;;;6.3;2.8;;;;;;;20.2;53.89746;970.9216;;;;
2019/08/21 13:48:54;;;;;;;5.8;2.6;;;;;;;20.03;51.67773;970.8725;;;;
2019/08/21 13:51:19;;;;;;;5.7;2.5;;;;;;;19.74;53.32324;970.8706;;;;
2019/08/21 13:53:44;;;;;;;4.8;2.7;;;;;;;19.66;55.875;970.8111;;;;
2019/08/21 13:56:09;;;;;;;4.8;2.3;;;;;;;19.9;53.0957;970.8039;;;;
2019/08/21 13:58:34;;;;;;;6.2;2.7;;;;;;;19.77;54.59668;970.7622;;;;
2019/08/21 14:01:02;;;;;;;6.4;2.5;;;;;;;19.79;54.01172;970.7723;;;;
2019/08/21 14:03:27;;;;;;;7;3;;;;;;;19.87;55.05566;970.8072;;;;
2019/08/21 14:05:56;;;;;;;5.3;2.7;;;;;;;19.85;55.47656;970.7922;;;;
2019/08/21 14:08:24;;;;;;;5.5;2.8;;;;;;;20.17;53.59961;970.7799;;;;
2019/08/21 14:10:49;;;;;;;5.6;2.6;;;;;;;20.05;50.49219;970.8329;;;;
2019/08/21 14:13:15;;;;;;;5.9;2.5;;;;;;;20.22;51.6875;970.8079;;;;
2019/08/21 14:15:40;;;;;;;3.7;2.2;;;;;;;20.04;50.63281;970.8231;;;;
2019/08/21 14:18:05;;;;;;;4.7;2.4;;;;;;;20.12;50.31152;970.7377;;;;
2019/08/21 14:20:30;;;;;;;6.1;2.6;;;;;;;20.16;51.03418;970.7039;;;;
2019/08/21 14:22:55;;;;;;;6.1;2.6;;;;;;;19.97;53.64551;970.7153;;;;
2019/08/21 14:25:20;;;;;;;5.3;2.4;;;;;;;19.88;53.35254;970.7004;;;;
2019/08/21 14:27:45;;;;;;;4.1;2.2;;;;;;;19.89;55.6123;970.7428;;;;
2019/08/21 14:30:10;;;;;;;5.4;2.5;;;;;;;20;54.2832;970.7178;;;;
2019/08/21 14:32:35;;;;;;;5.2;2.5;;;;;;;20.06;54.43262;970.6631;;;;
2019/08/21 14:35:00;;;;;;;5.3;2.4;;;;;;;20.37;55.7998;970.6802;;;;